createdAt,value
2023-03-17T00:01:54.597Z,40.89
2023-03-17T00:04:24.496Z,40.80
2023-03-17T00:06:53.093Z,40.83
2023-03-17T00:09:22.310Z,40.97
2023-03-17T00:11:50.294Z,40.88
2023-03-17T00:14:19.769Z,40.88
2023-03-17T00:16:52.659Z,40.92
2023-03-17T00:19:26.437Z,41.02
2023-03-17T00:21:55.068Z,40.84
2023-03-17T00:24:22.414Z,40.75
2023-03-17T00:26:49.682Z,40.99
2023-03-17T00:29:16.936Z,40.74
2023-03-17T00:31:45.745Z,40.81
2023-03-17T00:34:17.374Z,40.91
2023-03-17T00:36:48.207Z,40.93
2023-03-17T00:41:43.729Z,40.99
2023-03-17T00:44:11.835Z,40.85
2023-03-17T00:46:41.625Z,40.95
2023-03-17T00:49:22.092Z,40.90
2023-03-17T00:51:50.884Z,41.02
2023-03-17T00:54:20.873Z,41.00
2023-03-17T00:56:49.968Z,40.87
2023-03-17T00:59:30.611Z,41.03
2023-03-17T01:01:58.295Z,40.89
2023-03-17T01:04:25.983Z,40.80
2023-03-17T01:06:54.022Z,40.80
2023-03-17T01:09:26.695Z,40.93
2023-03-17T01:11:55.613Z,40.83
2023-03-17T01:14:23.445Z,40.85
2023-03-17T01:16:53.061Z,40.76
2023-03-17T01:19:20.632Z,40.80
2023-03-17T01:21:48.145Z,40.86
2023-03-17T01:24:15.431Z,40.80
2023-03-17T01:26:42.767Z,40.75
2023-03-17T01:29:10.079Z,40.69
2023-03-17T01:31:37.448Z,40.79
2023-03-17T01:34:06.288Z,41.02
2023-03-17T01:36:34.388Z,40.97
2023-03-17T01:39:02.084Z,40.88
2023-03-17T01:41:33.681Z,41.11
2023-03-17T01:44:01.238Z,40.97
2023-03-17T01:46:31.790Z,41.00
2023-03-17T01:48:59.036Z,40.71
2023-03-17T01:51:40.283Z,40.69
2023-03-17T01:54:18.834Z,40.86
2023-03-17T01:56:50.080Z,41.02
2023-03-17T01:59:27.110Z,40.81
2023-03-17T02:02:03.449Z,40.78
2023-03-17T02:04:32.668Z,40.81
2023-03-17T02:07:02.558Z,40.73
2023-03-17T02:09:32.727Z,40.69
2023-03-17T02:12:01.595Z,40.73
2023-03-17T02:14:31.892Z,40.87
2023-03-17T02:16:59.428Z,40.83
2023-03-17T02:19:27.002Z,40.85
2023-03-17T02:21:56.909Z,40.89
2023-03-17T02:24:30.777Z,40.86
2023-03-17T02:27:03.784Z,40.72
2023-03-17T02:29:34.128Z,40.85
2023-03-17T02:32:02.512Z,40.71
2023-03-17T02:34:31.792Z,40.65
2023-03-17T02:36:59.376Z,40.87
2023-03-17T02:39:27.472Z,40.80
2023-03-17T02:41:55.087Z,40.79
2023-03-17T02:44:22.554Z,40.69
2023-03-17T02:46:49.916Z,40.74
2023-03-17T02:49:17.839Z,40.68
2023-03-17T02:51:45.903Z,40.70
2023-03-17T02:54:13.248Z,40.66
2023-03-17T02:56:40.923Z,40.65
2023-03-17T02:59:09.276Z,40.75
2023-03-17T03:01:36.910Z,40.78
2023-03-17T03:04:04.283Z,40.89
2023-03-17T03:06:31.820Z,40.50
2023-03-17T03:08:59.357Z,40.78
2023-03-17T03:11:26.775Z,40.81
2023-03-17T03:13:54.300Z,40.61
2023-03-17T03:16:21.727Z,40.95
2023-03-17T03:18:48.982Z,40.83
2023-03-17T03:21:16.279Z,40.60
2023-03-17T03:23:48.255Z,40.84
2023-03-17T03:26:15.707Z,40.72
2023-03-17T03:28:42.920Z,40.74
2023-03-17T03:31:11.249Z,40.67
2023-03-17T03:33:38.566Z,40.67
2023-03-17T03:36:06.510Z,40.65
2023-03-17T03:38:33.888Z,40.73
2023-03-17T03:41:01.575Z,40.61
2023-03-17T03:43:29.344Z,40.72
2023-03-17T03:45:56.770Z,40.81
2023-03-17T03:48:24.516Z,40.65
2023-03-17T03:50:56.754Z,40.63
2023-03-17T03:53:24.296Z,40.65
2023-03-17T03:55:52.205Z,40.60
2023-03-17T03:58:19.516Z,40.49
2023-03-17T04:00:47.187Z,40.62
2023-03-17T04:03:14.803Z,40.85
2023-03-17T04:05:42.143Z,40.77
2023-03-17T04:08:09.496Z,40.66
2023-03-17T04:10:36.959Z,40.67
2023-03-17T04:13:04.210Z,40.74
2023-03-17T04:15:31.613Z,40.69
2023-03-17T04:17:58.865Z,40.59
2023-03-17T04:20:26.117Z,40.84
2023-03-17T04:22:53.340Z,40.92
2023-03-17T04:25:20.639Z,40.77
2023-03-17T04:27:47.949Z,40.74
2023-03-17T04:30:16.903Z,40.68
2023-03-17T04:32:45.102Z,40.74
2023-03-17T04:35:14.892Z,40.77
2023-03-17T04:37:42.204Z,40.66
2023-03-17T04:40:11.258Z,40.61
2023-03-17T04:42:39.181Z,40.68
2023-03-17T04:45:09.388Z,40.65
2023-03-17T04:47:37.907Z,40.56
2023-03-17T04:50:05.755Z,40.57
2023-03-17T04:52:33.080Z,40.63
2023-03-17T04:55:00.367Z,40.76
2023-03-17T04:57:27.619Z,40.73
2023-03-17T04:59:54.958Z,40.73
2023-03-17T05:02:22.297Z,40.60
2023-03-17T05:04:49.728Z,40.71
2023-03-17T05:07:17.013Z,40.69
2023-03-17T05:09:44.344Z,40.88
2023-03-17T05:12:13.654Z,40.84
2023-03-17T05:14:41.676Z,40.74
2023-03-17T05:17:08.958Z,40.78
2023-03-17T05:19:36.525Z,40.56
2023-03-17T05:22:03.812Z,40.70
2023-03-17T05:24:31.087Z,40.63
2023-03-17T05:26:58.336Z,40.69
2023-03-17T05:29:25.782Z,40.61
2023-03-17T05:31:53.088Z,40.60
2023-03-17T05:34:20.415Z,40.61
2023-03-17T05:36:47.931Z,40.54
2023-03-17T05:39:15.246Z,40.45
2023-03-17T05:41:42.624Z,40.70
2023-03-17T05:44:10.400Z,40.50
2023-03-17T05:46:37.759Z,40.59
2023-03-17T05:49:05.105Z,40.67
2023-03-17T05:51:32.405Z,40.55
2023-03-17T05:53:59.750Z,40.46
2023-03-17T05:56:33.375Z,40.60
2023-03-17T05:59:01.655Z,40.49
2023-03-17T06:01:29.610Z,40.60
2023-03-17T06:03:57.204Z,40.46
2023-03-17T06:06:24.759Z,40.49
2023-03-17T06:08:52.406Z,40.59
2023-03-17T06:11:21.608Z,40.41
2023-03-17T06:13:49.690Z,40.58
2023-03-17T06:16:17.046Z,40.53
2023-03-17T06:18:45.784Z,40.54
2023-03-17T06:21:13.785Z,40.45
2023-03-17T06:23:41.085Z,40.49
2023-03-17T06:26:08.512Z,40.40
2023-03-17T06:28:35.884Z,40.53
2023-03-17T06:31:05.335Z,40.52
2023-03-17T06:33:35.347Z,40.39
2023-03-17T06:36:03.359Z,40.35
2023-03-17T06:38:30.672Z,40.42
2023-03-17T06:40:58.052Z,40.42
2023-03-17T06:43:25.604Z,40.41
2023-03-17T06:45:52.830Z,40.28
2023-03-17T06:48:20.080Z,40.24
2023-03-17T06:50:47.789Z,40.48
2023-03-17T06:53:15.517Z,40.16
2023-03-17T06:55:42.962Z,40.30
2023-03-17T06:58:10.751Z,40.18
2023-03-17T07:00:41.110Z,40.14
2023-03-17T07:03:10.016Z,40.29
2023-03-17T07:05:39.376Z,40.39
2023-03-17T07:08:06.792Z,40.27
2023-03-17T07:10:35.450Z,40.28
2023-03-17T07:13:02.991Z,40.27
2023-03-17T07:15:34.862Z,40.23
2023-03-17T07:18:02.430Z,40.37
2023-03-17T07:20:30.295Z,40.38
2023-03-17T07:22:58.069Z,40.28
2023-03-17T07:25:25.352Z,40.63
2023-03-17T07:27:52.859Z,40.45
2023-03-17T07:30:20.628Z,40.52
2023-03-17T07:32:48.800Z,40.44
2023-03-17T07:35:16.295Z,40.65
2023-03-17T07:37:44.277Z,40.41
2023-03-17T07:40:12.061Z,40.61
2023-03-17T07:42:39.441Z,40.50
2023-03-17T07:45:07.994Z,40.65
2023-03-17T07:47:35.271Z,40.31
2023-03-17T07:50:03.031Z,40.92
2023-03-17T07:52:30.766Z,40.84
2023-03-17T07:54:58.507Z,40.80
2023-03-17T07:57:25.975Z,40.43
2023-03-17T07:59:53.574Z,40.38
2023-03-17T08:02:21.291Z,40.41
2023-03-17T08:04:48.727Z,40.41
2023-03-17T08:07:16.032Z,40.49
2023-03-17T08:09:43.497Z,40.32
2023-03-17T08:12:11.715Z,40.64
2023-03-17T08:14:39.101Z,40.55
2023-03-17T08:17:06.550Z,41.30
2023-03-17T08:19:33.929Z,41.08
2023-03-17T08:22:01.560Z,40.59
2023-03-17T08:24:29.454Z,40.36
2023-03-17T08:26:58.586Z,39.23
2023-03-17T08:29:28.382Z,38.49
2023-03-17T08:31:56.062Z,37.97
2023-03-17T08:34:24.250Z,37.55
2023-03-17T08:36:51.653Z,37.00
2023-03-17T08:39:19.658Z,36.83
2023-03-17T08:41:47.044Z,36.92
2023-03-17T08:44:14.934Z,37.21
2023-03-17T08:46:42.406Z,36.84
2023-03-17T08:49:11.033Z,36.89
2023-03-17T08:51:39.533Z,36.61
2023-03-17T08:54:07.772Z,37.09
2023-03-17T08:56:35.347Z,36.78
2023-03-17T08:59:05.547Z,36.97
2023-03-17T09:01:34.828Z,36.58
2023-03-17T09:04:02.871Z,35.50
2023-03-17T09:06:30.398Z,34.63
2023-03-17T09:08:57.704Z,34.71
2023-03-17T09:11:28.013Z,35.83
2023-03-17T09:13:55.749Z,37.10
2023-03-17T09:16:23.850Z,37.81
2023-03-17T09:18:51.384Z,38.12
2023-03-17T09:21:18.740Z,38.18
2023-03-17T09:23:46.810Z,38.33
2023-03-17T09:26:14.784Z,38.55
2023-03-17T09:28:42.845Z,38.65
2023-03-17T09:31:12.441Z,38.51
2023-03-17T09:33:40.999Z,38.49
2023-03-17T09:36:10.104Z,38.39
2023-03-17T09:38:37.985Z,38.73
2023-03-17T09:41:20.509Z,38.72
2023-03-17T09:44:21.864Z,39.02
2023-03-17T09:47:05.716Z,38.97
2023-03-17T09:49:42.617Z,38.89
2023-03-17T09:52:15.113Z,39.00
2023-03-17T09:54:42.924Z,38.75
2023-03-17T09:57:13.318Z,38.80
2023-03-17T09:59:44.089Z,38.91
2023-03-17T10:02:32.682Z,38.81
2023-03-17T10:05:17.894Z,38.85
2023-03-17T10:08:04.526Z,38.79
2023-03-17T10:10:53.757Z,38.88
2023-03-17T10:13:42.787Z,38.85
2023-03-17T10:16:23.192Z,38.77
2023-03-17T10:18:55.294Z,38.74
2023-03-17T10:21:28.705Z,38.68
2023-03-17T10:23:58.045Z,38.65
2023-03-17T10:26:33.970Z,38.73
2023-03-17T10:29:10.835Z,38.63
2023-03-17T10:31:39.338Z,38.68
2023-03-17T10:34:15.955Z,38.68
2023-03-17T10:37:03.482Z,38.59
2023-03-17T10:39:32.897Z,38.88
2023-03-17T10:42:09.550Z,38.94
2023-03-17T10:45:16.682Z,39.17
2023-03-17T10:47:48.197Z,39.30
2023-03-17T10:50:18.311Z,39.36
2023-03-17T10:52:47.491Z,39.15
2023-03-17T10:55:19.115Z,39.47
2023-03-17T10:57:59.647Z,39.48
2023-03-17T11:00:29.763Z,39.36
2023-03-17T11:02:58.944Z,39.33
2023-03-17T11:05:29.131Z,39.33
2023-03-17T11:08:10.952Z,39.59
2023-03-17T11:10:40.585Z,39.16
2023-03-17T11:13:08.397Z,39.12
2023-03-17T11:15:43.054Z,39.10
2023-03-17T11:18:42.048Z,39.12
2023-03-17T11:21:23.314Z,38.95
2023-03-17T11:24:09.455Z,39.04
2023-03-17T11:26:44.615Z,38.93
2023-03-17T11:29:26.913Z,38.97
2023-03-17T11:32:03.360Z,39.06
2023-03-17T11:34:56.798Z,39.17
2023-03-17T11:37:45.517Z,39.11
2023-03-17T11:40:18.023Z,38.96
2023-03-17T11:43:33.655Z,39.05
2023-03-17T11:46:19.335Z,39.17
2023-03-17T11:49:20.488Z,39.17
2023-03-17T11:52:14.147Z,39.28
2023-03-17T11:54:50.692Z,39.04
2023-03-17T11:57:27.275Z,38.97
2023-03-17T12:00:02.816Z,39.11
2023-03-17T12:02:53.702Z,39.28
2023-03-17T12:05:26.223Z,39.13
2023-03-17T12:07:59.034Z,39.07
2023-03-17T12:10:50.628Z,39.06
2023-03-17T12:13:34.046Z,39.07
2023-03-17T12:16:14.407Z,39.04
2023-03-17T12:19:06.427Z,39.30
2023-03-17T12:21:54.275Z,39.05
2023-03-17T12:24:59.585Z,39.23
2023-03-17T12:27:31.731Z,39.51
2023-03-17T12:30:03.429Z,39.17
2023-03-17T12:32:59.325Z,39.33
2023-03-17T12:35:34.304Z,39.12
2023-03-17T12:38:12.573Z,39.20
2023-03-17T12:41:17.485Z,39.38
2023-03-17T12:44:12.792Z,39.69
2023-03-17T12:47:04.594Z,39.64
2023-03-17T12:50:06.959Z,39.23
2023-03-17T12:53:04.465Z,39.52
2023-03-17T12:55:34.180Z,39.85
2023-03-17T12:58:21.197Z,39.74
2023-03-17T13:00:55.413Z,39.73
2023-03-17T13:03:24.510Z,39.63
2023-03-17T13:05:55.188Z,39.67
2023-03-17T13:08:25.802Z,39.44
2023-03-17T13:11:15.530Z,39.30
2023-03-17T13:13:48.077Z,39.54
2023-03-17T13:16:47.525Z,40.98
2023-03-17T13:19:20.145Z,42.34
2023-03-17T13:22:00.525Z,42.59
2023-03-17T13:24:53.288Z,42.30
2023-03-17T13:27:32.487Z,40.88
2023-03-17T13:30:22.121Z,42.76
2023-03-17T13:33:23.209Z,43.58
2023-03-17T13:36:11.812Z,43.41
2023-03-17T13:39:17.906Z,43.06
2023-03-17T13:42:17.675Z,42.48
2023-03-17T13:44:45.894Z,42.41
2023-03-17T13:47:38.377Z,42.17
2023-03-17T13:50:30.730Z,42.13
2023-03-17T13:53:02.811Z,41.78
2023-03-17T13:56:00.242Z,41.74
2023-03-17T13:58:33.275Z,41.60
2023-03-17T14:01:05.413Z,41.20
2023-03-17T14:03:49.241Z,41.12
2023-03-17T14:06:21.620Z,41.04
2023-03-17T14:08:53.439Z,41.08
2023-03-17T14:11:32.498Z,40.90
2023-03-17T14:14:26.018Z,40.95
2023-03-17T14:17:20.972Z,40.89
2023-03-17T14:20:18.534Z,40.74
2023-03-17T14:22:49.288Z,40.63
2023-03-17T14:25:26.102Z,40.64
2023-03-17T14:27:57.098Z,40.63
2023-03-17T14:30:30.503Z,40.25
2023-03-17T14:33:05.696Z,40.36
2023-03-17T14:35:37.539Z,40.38
2023-03-17T14:38:18.876Z,40.37
2023-03-17T14:40:46.933Z,40.23
2023-03-17T14:43:15.121Z,40.11
2023-03-17T14:45:58.902Z,40.14
2023-03-17T14:48:32.314Z,40.20
2023-03-17T14:51:06.933Z,39.98
2023-03-17T14:53:43.302Z,39.83
2023-03-17T14:56:10.760Z,39.85
2023-03-17T14:58:43.512Z,39.87
2023-03-17T15:01:17.180Z,39.69
2023-03-17T15:03:59.078Z,39.70
2023-03-17T15:06:30.677Z,39.87
2023-03-17T15:09:00.384Z,39.53
2023-03-17T15:11:41.623Z,39.83
2023-03-17T15:14:29.498Z,39.68
2023-03-17T15:16:57.377Z,39.81
2023-03-17T15:19:29.203Z,39.81
2023-03-17T15:21:59.927Z,39.86
2023-03-17T15:24:39.346Z,39.78
2023-03-17T15:27:18.484Z,39.86
2023-03-17T15:29:47.467Z,39.74
2023-03-17T15:32:20.295Z,39.77
2023-03-17T15:34:52.779Z,39.73
2023-03-17T15:37:24.629Z,39.95
2023-03-17T15:39:53.735Z,39.71
2023-03-17T15:42:24.574Z,39.80
2023-03-17T15:44:52.406Z,39.93
2023-03-17T15:47:22.090Z,39.80
2023-03-17T15:49:50.981Z,39.69
2023-03-17T15:52:27.398Z,39.79
2023-03-17T15:54:57.172Z,39.90
2023-03-17T15:57:25.544Z,39.95
2023-03-17T15:59:52.980Z,39.76
2023-03-17T16:02:32.772Z,39.65
2023-03-17T16:05:05.116Z,39.81
2023-03-17T16:07:32.481Z,39.91
2023-03-17T16:09:59.856Z,39.80
2023-03-17T16:12:27.235Z,39.89
2023-03-17T16:14:54.500Z,39.87
2023-03-17T16:17:29.985Z,39.90
2023-03-17T16:19:58.488Z,39.92
2023-03-17T16:22:43.908Z,40.01
2023-03-17T16:25:24.938Z,40.22
2023-03-17T16:27:53.671Z,40.18
2023-03-17T16:30:27.185Z,40.09
2023-03-17T16:32:59.488Z,39.99
2023-03-17T16:35:26.800Z,39.98
2023-03-17T16:37:54.418Z,40.18
2023-03-17T16:40:25.431Z,40.10
2023-03-17T16:42:53.623Z,40.28
2023-03-17T16:45:34.831Z,40.29
2023-03-17T16:48:03.821Z,40.24
2023-03-17T16:50:33.821Z,40.30
2023-03-17T16:53:01.213Z,40.44
2023-03-17T16:55:29.750Z,40.44
2023-03-17T16:58:04.354Z,40.43
2023-03-17T17:00:32.655Z,40.42
2023-03-17T17:03:00.311Z,40.65
2023-03-17T17:05:30.356Z,40.75
2023-03-17T17:07:59.851Z,40.61
2023-03-17T17:10:29.676Z,40.80
2023-03-17T17:12:56.953Z,40.93
2023-03-17T17:15:24.921Z,41.05
2023-03-17T17:17:56.702Z,41.19
2023-03-17T17:20:29.080Z,41.18
2023-03-17T17:23:01.574Z,41.21
2023-03-17T17:25:29.787Z,41.15
2023-03-17T17:27:58.155Z,41.31
2023-03-17T17:30:30.910Z,41.09
2023-03-17T17:33:00.276Z,41.20
2023-03-17T17:35:32.005Z,41.08
2023-03-17T17:38:01.865Z,41.09
2023-03-17T17:40:30.943Z,41.12
2023-03-17T17:42:58.473Z,41.03
2023-03-17T17:45:26.084Z,41.14
2023-03-17T17:47:53.379Z,41.11
2023-03-17T17:50:25.364Z,41.34
2023-03-17T17:52:53.003Z,41.22
2023-03-17T17:55:20.860Z,41.24
2023-03-17T17:57:48.241Z,41.21
2023-03-17T18:00:17.247Z,41.24
2023-03-17T18:02:45.192Z,41.44
2023-03-17T18:05:13.644Z,41.73
2023-03-17T18:07:41.196Z,41.69
2023-03-17T18:10:14.613Z,41.80
2023-03-17T18:12:41.917Z,41.91
2023-03-17T18:15:09.920Z,42.26
2023-03-17T18:17:37.107Z,42.42
2023-03-17T18:20:05.346Z,42.29
2023-03-17T18:22:33.759Z,42.20
2023-03-17T18:25:02.020Z,42.08
2023-03-17T18:27:29.314Z,42.03
2023-03-17T18:29:58.621Z,41.88
2023-03-17T18:32:27.894Z,41.78
2023-03-17T18:34:56.979Z,41.84
2023-03-17T18:37:24.480Z,41.74
2023-03-17T18:40:11.546Z,41.75
2023-03-17T18:42:39.060Z,41.62
2023-03-17T18:45:08.488Z,41.87
2023-03-17T18:47:37.732Z,41.94
2023-03-17T18:50:08.077Z,42.05
2023-03-17T18:52:37.523Z,42.26
2023-03-17T18:55:05.542Z,42.47
2023-03-17T18:57:33.372Z,42.54
2023-03-17T19:00:01.032Z,42.65
2023-03-17T19:02:28.241Z,42.70
2023-03-17T19:04:55.644Z,42.68
2023-03-17T19:07:23.135Z,42.66
2023-03-17T19:09:51.024Z,42.71
2023-03-17T19:12:18.707Z,42.81
2023-03-17T19:14:46.062Z,42.67
2023-03-17T19:17:13.352Z,42.87
2023-03-17T19:19:41.510Z,42.92
2023-03-17T19:22:09.572Z,42.93
2023-03-17T19:24:37.722Z,42.85
2023-03-17T19:27:05.661Z,42.81
2023-03-17T19:29:33.456Z,43.00
2023-03-17T19:32:00.796Z,42.85
2023-03-17T19:34:28.229Z,42.72
2023-03-17T19:36:55.704Z,42.78
2023-03-17T19:39:23.598Z,42.76
2023-03-17T19:41:55.027Z,42.78
2023-03-17T19:44:22.686Z,42.64
2023-03-17T19:46:50.461Z,42.87
2023-03-17T19:49:18.075Z,42.91
2023-03-17T19:51:45.304Z,42.93
2023-03-17T19:54:13.248Z,42.93
2023-03-17T19:56:40.781Z,42.90
2023-03-17T19:59:09.079Z,42.85
2023-03-17T20:01:37.952Z,42.90
2023-03-17T20:04:06.968Z,42.72
2023-03-17T20:06:35.587Z,42.79
2023-03-17T20:09:04.332Z,42.88
2023-03-17T20:11:33.964Z,42.90
2023-03-17T20:14:02.555Z,42.91
2023-03-17T20:16:36.043Z,42.96
2023-03-17T20:19:04.186Z,42.93
2023-03-17T20:21:31.525Z,43.05
2023-03-17T20:23:58.987Z,43.06
2023-03-17T20:26:26.755Z,43.04
2023-03-17T20:28:54.106Z,43.17
2023-03-17T20:31:22.762Z,43.15
2023-03-17T20:33:51.092Z,43.14
2023-03-17T20:36:18.452Z,43.26
2023-03-17T20:38:45.829Z,43.15
2023-03-17T20:41:16.120Z,43.06
2023-03-17T20:43:44.588Z,43.20
2023-03-17T20:46:23.897Z,43.23
2023-03-17T20:48:58.411Z,43.15
2023-03-17T20:51:26.553Z,43.14
2023-03-17T20:53:55.184Z,43.10
2023-03-17T20:56:24.132Z,43.04
2023-03-17T20:58:53.189Z,42.96
2023-03-17T21:01:21.654Z,42.93
2023-03-17T21:03:50.509Z,42.78
2023-03-17T21:06:18.669Z,42.69
2023-03-17T21:08:46.315Z,42.63
2023-03-17T21:11:17.045Z,42.74
2023-03-17T21:13:48.000Z,42.73
2023-03-17T21:16:22.553Z,42.76
2023-03-17T21:18:50.138Z,42.48
2023-03-17T21:21:18.343Z,42.55
2023-03-17T21:23:47.285Z,42.49
2023-03-17T21:26:15.416Z,42.40
2023-03-17T21:28:43.126Z,42.53
2023-03-17T21:31:12.348Z,42.41
2023-03-17T21:33:40.027Z,42.32
2023-03-17T21:36:07.794Z,42.46
2023-03-17T21:38:35.754Z,42.30
2023-03-17T21:41:28.684Z,42.40
2023-03-17T21:43:56.314Z,42.30
2023-03-17T21:46:24.337Z,42.23
2023-03-17T21:48:52.207Z,42.31
2023-03-17T21:51:20.849Z,42.24
2023-03-17T21:53:48.528Z,42.20
2023-03-17T21:56:16.924Z,42.22
2023-03-17T21:58:44.240Z,42.11
2023-03-17T22:01:12.271Z,42.23
2023-03-17T22:03:40.073Z,42.20
2023-03-17T22:06:08.839Z,42.07
2023-03-17T22:08:36.132Z,41.84
2023-03-17T22:11:13.221Z,42.55
2023-03-17T22:13:41.455Z,42.58
2023-03-17T22:16:10.339Z,42.22
2023-03-17T22:18:38.266Z,42.46
2023-03-17T22:21:06.785Z,42.28
2023-03-17T22:23:39.669Z,42.13
2023-03-17T22:26:15.759Z,42.02
2023-03-17T22:28:44.788Z,42.00
2023-03-17T22:31:23.832Z,41.91
2023-03-17T22:33:55.286Z,42.10
2023-03-17T22:36:23.825Z,41.97
2023-03-17T22:38:51.644Z,41.95
2023-03-17T22:41:22.062Z,41.78
2023-03-17T22:43:51.454Z,42.21
2023-03-17T22:46:19.489Z,41.92
2023-03-17T22:48:47.706Z,42.32
2023-03-17T22:51:18.338Z,42.36
2023-03-17T22:53:46.552Z,42.13
2023-03-17T22:56:15.801Z,41.76
2023-03-17T22:58:44.313Z,41.55
2023-03-17T23:01:13.415Z,41.55
2023-03-17T23:03:41.936Z,42.34
2023-03-17T23:06:10.317Z,41.58
2023-03-17T23:08:38.963Z,41.52
2023-03-17T23:11:10.607Z,41.77
2023-03-17T23:13:40.680Z,41.43
2023-03-17T23:16:09.512Z,41.35
2023-03-17T23:18:37.267Z,41.68
2023-03-17T23:21:06.721Z,42.05
2023-03-17T23:23:34.989Z,41.17
2023-03-17T23:26:03.129Z,41.20
2023-03-17T23:28:30.456Z,41.71
2023-03-17T23:30:58.196Z,41.19
2023-03-17T23:33:26.073Z,41.71
2023-03-17T23:35:53.492Z,41.36
2023-03-17T23:38:21.347Z,41.39
2023-03-17T23:40:49.536Z,41.41
2023-03-17T23:43:16.872Z,41.31
2023-03-17T23:45:44.302Z,41.38
2023-03-17T23:48:11.995Z,41.32
2023-03-17T23:50:41.143Z,41.37
2023-03-17T23:53:09.633Z,41.32
2023-03-17T23:55:37.351Z,41.36
2023-03-17T23:58:04.985Z,41.14
